createdAt,value
2022-12-25T00:01:45.761Z,35.33
2022-12-25T00:04:12.260Z,38.85
2022-12-25T00:06:39.793Z,37.97
2022-12-25T00:09:06.236Z,30.75
2022-12-25T00:11:32.654Z,30.83
2022-12-25T00:13:59.206Z,32.00
2022-12-25T00:16:26.791Z,44.70
2022-12-25T00:18:54.082Z,35.47
2022-12-25T00:21:21.767Z,34.22
2022-12-25T00:23:52.719Z,36.45
2022-12-25T00:26:19.096Z,32.95
2022-12-25T00:28:45.794Z,41.00
2022-12-25T00:31:14.893Z,36.63
2022-12-25T00:33:44.445Z,32.80
2022-12-25T00:36:12.464Z,33.17
2022-12-25T00:38:40.401Z,38.40
2022-12-25T00:41:15.493Z,36.05
2022-12-25T00:43:41.891Z,42.20
2022-12-25T00:46:10.124Z,42.47
2022-12-25T00:48:36.790Z,47.40
2022-12-25T00:51:06.850Z,39.50
2022-12-25T00:53:33.712Z,43.22
2022-12-25T00:56:02.617Z,47.77
2022-12-25T00:58:31.088Z,35.22
2022-12-25T01:00:57.769Z,39.25
2022-12-25T01:03:24.686Z,45.38
2022-12-25T01:06:02.992Z,46.70
2022-12-25T01:08:31.541Z,36.83
2022-12-25T01:11:00.224Z,50.35
2022-12-25T01:13:27.748Z,39.22
2022-12-25T01:15:54.525Z,42.42
2022-12-25T01:18:22.434Z,42.33
2022-12-25T01:20:49.060Z,48.77
2022-12-25T01:23:16.111Z,40.90
2022-12-25T01:25:42.780Z,42.10
2022-12-25T01:28:09.343Z,38.58
2022-12-25T01:30:35.725Z,36.85
2022-12-25T01:33:02.201Z,39.67
2022-12-25T01:35:28.609Z,36.72
2022-12-25T01:37:55.040Z,41.05
2022-12-25T01:40:21.384Z,36.65
2022-12-25T01:42:47.791Z,42.70
2022-12-25T01:45:31.654Z,34.97
2022-12-25T01:47:58.180Z,36.78
2022-12-25T01:50:24.915Z,37.55
2022-12-25T01:52:51.994Z,39.17
2022-12-25T01:55:18.475Z,26.75
2022-12-25T01:57:45.755Z,33.37
2022-12-25T02:00:13.658Z,34.58
2022-12-25T02:02:41.540Z,30.35
2022-12-25T02:05:14.171Z,37.22
2022-12-25T02:07:42.143Z,38.35
2022-12-25T02:10:11.086Z,40.53
2022-12-25T02:12:38.653Z,39.80
2022-12-25T02:15:20.886Z,42.55
2022-12-25T02:17:53.127Z,37.97
2022-12-25T02:20:51.809Z,43.83
2022-12-25T02:23:42.083Z,39.77
2022-12-25T02:26:31.705Z,42.78
2022-12-25T02:29:30.456Z,37.50
2022-12-25T02:32:07.772Z,43.00
2022-12-25T02:34:43.381Z,35.30
2022-12-25T02:37:27.748Z,30.00
2022-12-25T02:40:07.635Z,37.83
2022-12-25T02:43:24.762Z,37.25
2022-12-25T02:45:59.493Z,33.35
2022-12-25T02:48:31.156Z,36.85
2022-12-25T02:51:01.972Z,35.30
2022-12-25T02:53:29.196Z,40.83
2022-12-25T02:55:56.922Z,34.10
2022-12-25T02:58:25.389Z,40.70
2022-12-25T03:01:04.528Z,42.95
2022-12-25T03:03:34.686Z,37.33
2022-12-25T03:06:03.789Z,34.20
2022-12-25T03:08:37.194Z,31.20
2022-12-25T03:11:07.569Z,33.55
2022-12-25T03:13:39.538Z,32.85
2022-12-25T03:16:06.780Z,32.47
2022-12-25T03:18:34.170Z,38.20
2022-12-25T03:21:00.960Z,32.22
2022-12-25T03:23:34.602Z,29.60
2022-12-25T03:26:01.129Z,34.20
2022-12-25T03:28:27.489Z,41.53
2022-12-25T03:31:04.182Z,33.92
2022-12-25T03:33:49.363Z,30.60
2022-12-25T03:36:32.440Z,40.15
2022-12-25T03:39:02.989Z,30.15
2022-12-25T03:41:48.851Z,36.50
2022-12-25T03:44:21.527Z,35.53
2022-12-25T03:46:54.519Z,36.88
2022-12-25T03:49:26.410Z,38.80
2022-12-25T03:51:57.307Z,45.67
2022-12-25T03:54:30.591Z,44.00
2022-12-25T03:56:57.419Z,42.13
2022-12-25T03:59:24.490Z,38.75
2022-12-25T04:01:51.936Z,42.83
2022-12-25T04:04:18.355Z,43.47
2022-12-25T04:06:45.225Z,46.67
2022-12-25T04:09:11.623Z,40.95
2022-12-25T04:11:37.970Z,40.78
2022-12-25T04:14:04.317Z,46.45
2022-12-25T04:16:30.669Z,47.03
2022-12-25T04:18:56.978Z,51.20
2022-12-25T04:21:24.331Z,51.30
2022-12-25T04:23:50.770Z,45.80
2022-12-25T04:26:17.173Z,47.38
2022-12-25T04:28:43.752Z,51.92
2022-12-25T04:31:10.141Z,48.67
2022-12-25T04:33:36.717Z,58.60
2022-12-25T04:36:03.351Z,52.35
2022-12-25T04:38:29.704Z,45.25
2022-12-25T04:40:56.056Z,57.67
2022-12-25T04:43:22.519Z,43.20
2022-12-25T04:45:56.358Z,43.05
2022-12-25T04:48:23.378Z,49.47
2022-12-25T04:50:49.739Z,45.88
2022-12-25T04:53:17.018Z,41.55
2022-12-25T04:55:43.812Z,37.13
2022-12-25T04:58:10.232Z,38.45
2022-12-25T05:00:37.204Z,41.20
2022-12-25T05:03:03.650Z,39.08
2022-12-25T05:05:30.449Z,36.75
2022-12-25T05:07:57.307Z,37.27
2022-12-25T05:10:24.545Z,32.40
2022-12-25T05:12:50.969Z,30.33
2022-12-25T05:15:17.701Z,27.05
2022-12-25T05:17:44.016Z,28.92
2022-12-25T05:20:10.507Z,30.57
2022-12-25T05:22:36.957Z,27.45
2022-12-25T05:25:03.481Z,22.45
2022-12-25T05:27:29.817Z,26.92
2022-12-25T05:29:56.224Z,23.08
2022-12-25T05:32:22.565Z,22.93
2022-12-25T05:34:48.951Z,27.05
2022-12-25T05:37:15.274Z,26.70
2022-12-25T05:39:41.670Z,26.02
2022-12-25T05:42:08.103Z,25.20
2022-12-25T05:44:34.779Z,27.53
2022-12-25T05:47:01.220Z,26.48
2022-12-25T05:49:27.713Z,21.42
2022-12-25T05:51:54.123Z,21.83
2022-12-25T05:54:20.566Z,23.13
2022-12-25T05:56:46.909Z,17.20
2022-12-25T05:59:13.273Z,24.08
2022-12-25T06:01:39.780Z,21.15
2022-12-25T06:04:12.185Z,24.35
2022-12-25T06:06:38.916Z,20.10
2022-12-25T06:09:05.336Z,21.97
2022-12-25T06:11:31.774Z,19.15
2022-12-25T06:13:58.236Z,19.48
2022-12-25T06:16:24.600Z,21.20
2022-12-25T06:18:51.604Z,16.10
2022-12-25T06:21:18.120Z,20.57
2022-12-25T06:23:45.086Z,21.60
2022-12-25T06:26:18.091Z,17.33
2022-12-25T06:28:44.664Z,16.27
2022-12-25T06:31:17.209Z,19.42
2022-12-25T06:33:43.804Z,15.10
2022-12-25T06:36:16.130Z,15.77
2022-12-25T06:38:42.729Z,15.65
2022-12-25T06:41:11.936Z,11.60
2022-12-25T06:43:38.711Z,23.33
2022-12-25T06:46:07.711Z,17.73
2022-12-25T06:48:35.226Z,13.60
2022-12-25T06:51:02.005Z,14.30
2022-12-25T06:53:32.283Z,18.40
2022-12-25T06:56:05.325Z,16.27
2022-12-25T06:58:32.304Z,17.23
2022-12-25T07:00:58.886Z,19.17
2022-12-25T07:03:28.372Z,19.05
2022-12-25T07:05:54.787Z,15.07
2022-12-25T07:08:21.083Z,18.67
2022-12-25T07:10:47.440Z,17.33
2022-12-25T07:13:13.888Z,20.52
2022-12-25T07:15:40.432Z,15.27
2022-12-25T07:18:08.006Z,15.90
2022-12-25T07:20:34.415Z,15.10
2022-12-25T07:23:00.812Z,15.00
2022-12-25T07:25:30.847Z,16.33
2022-12-25T07:28:00.135Z,14.95
2022-12-25T07:30:26.606Z,21.02
2022-12-25T07:32:53.020Z,12.65
2022-12-25T07:35:19.355Z,17.43
2022-12-25T07:37:45.665Z,13.55
2022-12-25T07:40:12.316Z,19.60
2022-12-25T07:42:38.628Z,20.33
2022-12-25T07:45:05.566Z,17.75
2022-12-25T07:47:31.960Z,15.97
2022-12-25T07:49:58.386Z,19.92
2022-12-25T07:52:24.809Z,17.45
2022-12-25T07:54:51.300Z,15.65
2022-12-25T07:57:17.610Z,15.65
2022-12-25T07:59:43.906Z,14.17
2022-12-25T08:02:11.364Z,12.25
2022-12-25T08:04:37.811Z,15.80
2022-12-25T08:07:04.241Z,13.73
2022-12-25T08:09:30.634Z,16.45
2022-12-25T08:11:56.924Z,19.83
2022-12-25T08:14:23.280Z,17.63
2022-12-25T08:16:49.655Z,16.95
2022-12-25T08:19:16.244Z,15.38
2022-12-25T08:21:42.611Z,14.13
2022-12-25T08:24:09.024Z,14.80
2022-12-25T08:26:35.388Z,12.68
2022-12-25T08:29:02.528Z,11.23
2022-12-25T08:31:30.435Z,16.58
2022-12-25T08:33:58.393Z,16.60
2022-12-25T08:36:25.104Z,14.17
2022-12-25T08:38:53.449Z,13.93
2022-12-25T08:41:22.068Z,18.00
2022-12-25T08:43:48.497Z,16.52
2022-12-25T08:46:15.197Z,17.85
2022-12-25T08:48:43.140Z,19.40
2022-12-25T08:51:14.347Z,14.73
2022-12-25T08:53:42.627Z,16.50
2022-12-25T08:56:09.564Z,14.60
2022-12-25T08:58:36.618Z,14.93
2022-12-25T09:01:03.747Z,11.73
2022-12-25T09:03:30.331Z,16.15
2022-12-25T09:06:05.643Z,13.80
2022-12-25T09:08:32.521Z,15.48
2022-12-25T09:11:07.546Z,13.32
2022-12-25T09:13:34.527Z,12.43
2022-12-25T09:16:08.807Z,16.67
2022-12-25T09:18:35.751Z,14.73
2022-12-25T09:21:05.171Z,17.85
2022-12-25T09:23:32.572Z,15.70
2022-12-25T09:26:03.972Z,15.67
2022-12-25T09:28:30.453Z,13.05
2022-12-25T09:30:57.070Z,13.52
2022-12-25T09:33:23.875Z,16.08
2022-12-25T09:35:58.400Z,12.98
2022-12-25T09:38:25.501Z,17.93
2022-12-25T09:41:18.098Z,13.75
2022-12-25T09:43:51.496Z,12.95
2022-12-25T09:46:21.710Z,17.38
2022-12-25T09:48:59.199Z,18.63
2022-12-25T09:51:29.434Z,20.33
2022-12-25T09:54:04.311Z,17.25
2022-12-25T09:56:33.259Z,15.90
2022-12-25T09:58:59.808Z,12.60
2022-12-25T10:01:35.715Z,13.48
2022-12-25T10:04:13.923Z,17.20
2022-12-25T10:06:52.428Z,14.98
2022-12-25T10:09:44.586Z,14.63
2022-12-25T10:12:32.665Z,11.88
2022-12-25T10:15:33.751Z,18.75
2022-12-25T10:18:09.387Z,11.80
2022-12-25T10:20:52.150Z,12.20
2022-12-25T10:23:36.825Z,14.95
2022-12-25T10:26:03.589Z,14.55
2022-12-25T10:28:37.539Z,12.75
2022-12-25T10:31:18.709Z,14.03
2022-12-25T10:33:45.473Z,15.95
2022-12-25T10:36:11.848Z,14.80
2022-12-25T10:38:38.179Z,13.98
2022-12-25T10:41:18.901Z,13.48
2022-12-25T10:43:49.332Z,18.03
2022-12-25T10:46:17.132Z,14.25
2022-12-25T10:48:49.305Z,17.15
2022-12-25T10:51:30.485Z,13.80
2022-12-25T10:53:57.268Z,14.02
2022-12-25T10:56:23.927Z,16.80
2022-12-25T10:58:50.454Z,15.38
2022-12-25T11:01:17.050Z,14.80
2022-12-25T11:03:51.764Z,14.52
2022-12-25T11:06:30.764Z,12.93
2022-12-25T11:09:00.038Z,16.10
2022-12-25T11:11:28.129Z,12.10
2022-12-25T11:13:58.042Z,16.60
2022-12-25T11:16:31.653Z,14.48
2022-12-25T11:18:59.925Z,11.95
2022-12-25T11:21:29.657Z,19.03
2022-12-25T11:24:04.163Z,15.32
2022-12-25T11:26:49.808Z,19.23
2022-12-25T11:29:25.005Z,13.80
2022-12-25T11:31:54.880Z,18.83
2022-12-25T11:34:34.068Z,15.60
2022-12-25T11:37:14.110Z,17.73
2022-12-25T11:39:41.781Z,19.08
2022-12-25T11:42:40.649Z,16.63
2022-12-25T11:45:24.899Z,18.35
2022-12-25T11:48:04.303Z,17.88
2022-12-25T11:50:59.577Z,18.55
2022-12-25T11:53:36.227Z,17.88
2022-12-25T11:56:08.422Z,17.60
2022-12-25T11:58:43.226Z,20.73
2022-12-25T12:01:51.925Z,20.23
2022-12-25T12:04:42.655Z,15.55
2022-12-25T12:07:26.639Z,15.90
2022-12-25T12:10:05.179Z,22.95
2022-12-25T12:12:49.089Z,22.35
2022-12-25T12:15:35.915Z,23.58
2022-12-25T12:18:19.334Z,19.55
2022-12-25T12:20:57.377Z,20.33
2022-12-25T12:23:24.743Z,23.92
2022-12-25T12:25:52.930Z,23.33
2022-12-25T12:28:29.021Z,21.65
2022-12-25T12:31:06.146Z,26.15
2022-12-25T12:33:40.348Z,20.52
2022-12-25T12:36:13.597Z,26.35
2022-12-25T12:38:42.901Z,26.83
2022-12-25T12:41:11.354Z,28.23
2022-12-25T12:43:45.121Z,23.05
2022-12-25T12:46:26.085Z,27.88
2022-12-25T12:49:19.851Z,25.80
2022-12-25T12:51:46.261Z,29.77
2022-12-25T12:54:21.680Z,37.63
2022-12-25T12:57:02.952Z,24.52
2022-12-25T12:59:39.887Z,31.33
2022-12-25T13:02:12.634Z,27.92
2022-12-25T13:04:52.461Z,25.42
2022-12-25T13:07:42.474Z,26.25
2022-12-25T13:10:23.646Z,22.92
2022-12-25T13:12:56.510Z,24.95
2022-12-25T13:15:26.990Z,23.45
2022-12-25T13:18:03.851Z,22.67
2022-12-25T13:20:50.385Z,30.98
2022-12-25T13:23:25.613Z,28.35
2022-12-25T13:25:54.376Z,23.95
2022-12-25T13:28:25.977Z,22.77
2022-12-25T13:30:52.431Z,24.45
2022-12-25T13:33:19.316Z,24.35
2022-12-25T13:35:46.792Z,25.20
2022-12-25T13:38:17.786Z,22.05
2022-12-25T13:40:52.894Z,25.27
2022-12-25T13:43:19.344Z,22.65
2022-12-25T13:45:54.486Z,20.92
2022-12-25T13:48:21.105Z,25.50
2022-12-25T13:50:57.435Z,25.13
2022-12-25T13:53:23.901Z,25.42
2022-12-25T13:55:52.281Z,25.77
2022-12-25T13:58:31.342Z,24.45
2022-12-25T14:00:59.918Z,28.25
2022-12-25T14:03:41.248Z,26.60
2022-12-25T14:06:27.694Z,23.35
2022-12-25T14:08:56.138Z,24.70
2022-12-25T14:11:25.055Z,29.50
2022-12-25T14:13:56.324Z,30.10
2022-12-25T14:16:23.675Z,30.20
2022-12-25T14:18:52.198Z,25.40
2022-12-25T14:21:27.408Z,28.25
2022-12-25T14:23:54.337Z,21.05
2022-12-25T14:26:24.293Z,25.90
2022-12-25T14:28:54.787Z,23.55
2022-12-25T14:31:23.320Z,26.23
2022-12-25T14:33:51.320Z,23.23
2022-12-25T14:36:18.044Z,31.25
2022-12-25T14:38:44.507Z,33.78
2022-12-25T14:41:26.290Z,43.55
2022-12-25T14:43:54.935Z,28.55
2022-12-25T14:46:26.697Z,37.50
2022-12-25T14:49:06.841Z,61.17
2022-12-25T14:51:38.087Z,36.72
2022-12-25T14:54:15.492Z,32.15
2022-12-25T14:56:47.994Z,30.48
2022-12-25T14:59:19.091Z,25.98
2022-12-25T15:01:52.057Z,27.15
2022-12-25T15:04:19.797Z,25.55
2022-12-25T15:07:04.160Z,28.70
2022-12-25T15:09:30.482Z,24.65
2022-12-25T15:11:56.983Z,21.65
2022-12-25T15:14:25.071Z,22.92
2022-12-25T15:16:55.132Z,22.38
2022-12-25T15:19:33.188Z,24.83
2022-12-25T15:22:03.553Z,19.08
2022-12-25T15:24:29.954Z,25.90
2022-12-25T15:26:56.295Z,27.02
2022-12-25T15:29:44.517Z,25.65
2022-12-25T15:32:17.458Z,23.58
2022-12-25T15:34:43.754Z,28.27
2022-12-25T15:37:10.124Z,33.45
2022-12-25T15:39:36.492Z,28.92
2022-12-25T15:42:02.932Z,29.80
2022-12-25T15:44:29.333Z,36.15
2022-12-25T15:46:55.767Z,42.22
2022-12-25T15:49:22.117Z,35.95
2022-12-25T15:51:48.802Z,27.90
2022-12-25T15:54:15.245Z,27.00
2022-12-25T15:56:53.572Z,31.15
2022-12-25T15:59:21.119Z,36.65
2022-12-25T16:01:59.079Z,34.03
2022-12-25T16:04:26.699Z,36.70
2022-12-25T16:06:54.232Z,30.05
2022-12-25T16:09:21.546Z,30.55
2022-12-25T16:11:49.311Z,30.20
2022-12-25T16:14:15.856Z,40.10
2022-12-25T16:16:42.333Z,46.50
2022-12-25T16:19:08.688Z,33.63
2022-12-25T16:21:42.132Z,37.10
2022-12-25T16:24:08.973Z,47.05
2022-12-25T16:26:35.664Z,32.60
2022-12-25T16:29:07.005Z,40.72
2022-12-25T16:31:35.290Z,42.38
2022-12-25T16:34:01.755Z,36.33
2022-12-25T16:36:28.096Z,33.47
2022-12-25T16:38:54.449Z,30.90
2022-12-25T16:41:21.090Z,35.10
2022-12-25T16:43:47.875Z,31.17
2022-12-25T16:46:16.745Z,30.40
2022-12-25T16:48:43.371Z,33.08
2022-12-25T16:51:11.271Z,30.27
2022-12-25T16:53:38.187Z,33.30
2022-12-25T16:56:07.231Z,37.28
2022-12-25T16:58:33.655Z,35.42
2022-12-25T17:01:14.881Z,34.17
2022-12-25T17:03:41.513Z,31.40
2022-12-25T17:06:19.972Z,37.33
2022-12-25T17:08:47.161Z,36.72
2022-12-25T17:11:14.405Z,40.85
2022-12-25T17:13:40.829Z,43.60
2022-12-25T17:16:13.971Z,35.75
2022-12-25T17:18:40.418Z,35.03
2022-12-25T17:21:07.214Z,37.05
2022-12-25T17:23:34.014Z,39.03
2022-12-25T17:26:01.249Z,36.38
2022-12-25T17:28:27.752Z,34.78
2022-12-25T17:30:54.346Z,38.30
2022-12-25T17:33:20.846Z,32.97
2022-12-25T17:35:47.114Z,35.15
2022-12-25T17:38:13.463Z,41.90
2022-12-25T17:40:39.738Z,53.38
2022-12-25T17:43:06.154Z,44.22
2022-12-25T17:45:32.576Z,40.55
2022-12-25T17:47:58.899Z,39.33
2022-12-25T17:50:25.349Z,43.20
2022-12-25T17:52:52.472Z,39.75
2022-12-25T17:55:18.995Z,34.95
2022-12-25T17:57:45.601Z,38.85
2022-12-25T18:00:12.534Z,48.35
2022-12-25T18:02:39.101Z,43.88
2022-12-25T18:05:06.055Z,45.95
2022-12-25T18:07:32.595Z,46.95
2022-12-25T18:09:58.907Z,46.75
2022-12-25T18:12:25.352Z,38.40
2022-12-25T18:14:51.701Z,40.80
2022-12-25T18:17:18.012Z,35.45
2022-12-25T18:19:44.393Z,37.20
2022-12-25T18:22:10.751Z,39.47
2022-12-25T18:24:37.642Z,38.45
2022-12-25T18:27:04.042Z,39.30
2022-12-25T18:29:30.374Z,37.67
2022-12-25T18:31:56.767Z,36.80
2022-12-25T18:34:23.161Z,39.67
2022-12-25T18:36:49.507Z,38.13
2022-12-25T18:39:15.874Z,38.47
2022-12-25T18:41:42.274Z,46.53
2022-12-25T18:44:08.606Z,37.50
2022-12-25T18:46:34.904Z,36.00
2022-12-25T18:49:01.208Z,33.92
2022-12-25T18:51:33.081Z,40.50
2022-12-25T18:54:03.009Z,45.80
2022-12-25T18:56:29.412Z,45.13
2022-12-25T18:58:55.909Z,44.75
2022-12-25T19:01:23.968Z,41.83
2022-12-25T19:03:51.755Z,41.05
2022-12-25T19:06:21.056Z,42.05
2022-12-25T19:08:48.465Z,43.38
2022-12-25T19:11:14.949Z,37.42
2022-12-25T19:13:41.341Z,37.47
2022-12-25T19:16:07.855Z,39.22
2022-12-25T19:18:34.335Z,33.15
2022-12-25T19:21:02.707Z,37.30
2022-12-25T19:23:29.216Z,35.17
2022-12-25T19:25:55.719Z,36.70
2022-12-25T19:28:22.064Z,40.15
2022-12-25T19:30:48.402Z,40.97
2022-12-25T19:33:17.871Z,46.55
2022-12-25T19:35:44.605Z,38.22
2022-12-25T19:38:11.013Z,39.03
2022-12-25T19:40:39.626Z,37.95
2022-12-25T19:43:06.418Z,33.15
2022-12-25T19:45:33.124Z,32.10
2022-12-25T19:47:59.591Z,33.38
2022-12-25T19:50:26.010Z,31.10
2022-12-25T19:52:52.309Z,31.45
2022-12-25T19:55:18.649Z,30.83
2022-12-25T19:57:44.961Z,31.05
2022-12-25T20:00:11.528Z,34.42
2022-12-25T20:02:38.040Z,31.85
2022-12-25T20:05:04.810Z,29.45
2022-12-25T20:07:31.105Z,31.90
2022-12-25T20:09:57.375Z,31.13
2022-12-25T20:12:23.803Z,30.92
2022-12-25T20:14:50.201Z,31.20
2022-12-25T20:17:16.540Z,31.17
2022-12-25T20:19:42.976Z,31.40
2022-12-25T20:22:09.285Z,31.70
2022-12-25T20:24:35.631Z,31.95
2022-12-25T20:27:01.967Z,31.92
2022-12-25T20:29:28.349Z,31.65
2022-12-25T20:31:54.677Z,32.45
2022-12-25T20:34:21.199Z,30.38
2022-12-25T20:36:47.602Z,35.45
2022-12-25T20:39:13.967Z,34.55
2022-12-25T20:41:40.947Z,36.20
2022-12-25T20:44:07.733Z,33.28
2022-12-25T20:46:34.419Z,37.28
2022-12-25T20:49:02.095Z,34.35
2022-12-25T20:51:28.415Z,33.28
2022-12-25T20:53:55.331Z,33.92
2022-12-25T20:56:24.095Z,42.65
2022-12-25T20:58:56.046Z,40.58
2022-12-25T21:01:22.866Z,38.03
2022-12-25T21:03:49.518Z,40.38
2022-12-25T21:06:15.979Z,35.70
2022-12-25T21:08:42.473Z,39.05
2022-12-25T21:11:09.453Z,38.47
2022-12-25T21:13:39.032Z,40.55
2022-12-25T21:16:07.048Z,41.65
2022-12-25T21:18:33.709Z,35.00
2022-12-25T21:21:00.516Z,41.28
2022-12-25T21:23:28.496Z,40.88
2022-12-25T21:25:54.854Z,38.85
2022-12-25T21:28:22.843Z,36.80
2022-12-25T21:30:49.182Z,37.58
2022-12-25T21:33:17.228Z,33.55
2022-12-25T21:35:43.757Z,32.05
2022-12-25T21:38:10.265Z,31.90
2022-12-25T21:40:37.396Z,29.42
2022-12-25T21:43:03.980Z,31.02
2022-12-25T21:45:30.775Z,29.17
2022-12-25T21:47:59.896Z,27.45
2022-12-25T21:50:29.195Z,29.80
2022-12-25T21:52:55.611Z,31.95
2022-12-25T21:55:21.940Z,32.25
2022-12-25T21:57:48.261Z,30.85
2022-12-25T22:00:14.730Z,34.58
2022-12-25T22:02:41.269Z,32.25
2022-12-25T22:05:07.844Z,35.85
2022-12-25T22:07:34.164Z,40.85
2022-12-25T22:10:00.582Z,41.47
2022-12-25T22:12:33.511Z,40.92
2022-12-25T22:15:01.153Z,38.42
2022-12-25T22:17:29.941Z,48.08
2022-12-25T22:19:56.515Z,42.47
2022-12-25T22:22:25.748Z,45.92
2022-12-25T22:24:54.401Z,41.05
2022-12-25T22:27:21.295Z,52.60
2022-12-25T22:29:47.962Z,51.25
2022-12-25T22:32:15.191Z,51.42
2022-12-25T22:34:41.884Z,51.70
2022-12-25T22:37:12.886Z,47.65
2022-12-25T22:39:39.149Z,53.80
2022-12-25T22:42:05.536Z,49.85
2022-12-25T22:44:33.183Z,52.78
2022-12-25T22:46:59.834Z,49.33
2022-12-25T22:49:26.427Z,49.60
2022-12-25T22:51:53.400Z,49.90
2022-12-25T22:54:22.937Z,49.35
2022-12-25T22:56:51.765Z,52.25
2022-12-25T22:59:20.213Z,50.67
2022-12-25T23:01:47.357Z,53.90
2022-12-25T23:04:13.788Z,55.30
2022-12-25T23:06:40.529Z,48.33
2022-12-25T23:09:08.376Z,46.53
2022-12-25T23:11:36.528Z,54.80
2022-12-25T23:14:03.047Z,48.53
2022-12-25T23:16:29.656Z,49.03
2022-12-25T23:18:56.209Z,58.90
2022-12-25T23:21:24.977Z,51.47
2022-12-25T23:23:51.374Z,45.17
2022-12-25T23:26:20.646Z,54.55
2022-12-25T23:28:47.135Z,42.00
2022-12-25T23:31:13.656Z,48.33
2022-12-25T23:33:39.977Z,46.75
2022-12-25T23:36:06.580Z,48.90
2022-12-25T23:38:32.935Z,49.30
2022-12-25T23:40:59.441Z,46.10
2022-12-25T23:43:25.809Z,50.22
2022-12-25T23:45:52.207Z,43.47
2022-12-25T23:48:18.554Z,46.63
2022-12-25T23:50:44.861Z,47.63
2022-12-25T23:53:11.221Z,43.28
2022-12-25T23:55:37.766Z,41.60
2022-12-25T23:58:05.005Z,45.00
